createdAt,value
2022-12-06T00:01:05.606Z,603.35
2022-12-06T00:03:32.371Z,597.55
2022-12-06T00:06:08.490Z,599.88
2022-12-06T00:08:35.742Z,597.22
2022-12-06T00:11:04.982Z,597.50
2022-12-06T00:13:31.644Z,587.17
2022-12-06T00:16:03.586Z,598.88
2022-12-06T00:18:32.065Z,585.10
2022-12-06T00:21:16.129Z,595.08
2022-12-06T00:23:45.712Z,595.10
2022-12-06T00:26:13.143Z,603.15
2022-12-06T00:28:40.030Z,595.73
2022-12-06T00:31:13.791Z,599.95
2022-12-06T00:33:40.891Z,590.97
2022-12-06T00:36:11.696Z,589.72
2022-12-06T00:38:38.526Z,582.60
2022-12-06T00:41:12.486Z,587.80
2022-12-06T00:43:40.023Z,588.97
2022-12-06T00:46:08.441Z,586.35
2022-12-06T00:48:35.204Z,591.83
2022-12-06T00:51:01.819Z,593.80
2022-12-06T00:53:28.795Z,593.03
2022-12-06T00:55:55.435Z,592.80
2022-12-06T00:58:23.121Z,590.77
2022-12-06T01:00:51.233Z,601.85
2022-12-06T01:03:17.950Z,592.83
2022-12-06T01:05:49.815Z,588.22
2022-12-06T01:08:17.610Z,587.10
2022-12-06T01:10:54.132Z,583.88
2022-12-06T01:13:21.084Z,585.93
2022-12-06T01:15:47.928Z,592.08
2022-12-06T01:18:14.684Z,596.42
2022-12-06T01:20:41.278Z,585.63
2022-12-06T01:23:07.970Z,595.53
2022-12-06T01:25:36.380Z,588.58
2022-12-06T01:28:03.844Z,599.97
2022-12-06T01:30:30.967Z,596.13
2022-12-06T01:32:57.599Z,594.90
2022-12-06T01:35:24.178Z,598.20
2022-12-06T01:37:50.808Z,598.35
2022-12-06T01:40:17.343Z,591.90
2022-12-06T01:42:43.953Z,595.45
2022-12-06T01:45:10.799Z,595.00
2022-12-06T01:47:43.089Z,600.95
2022-12-06T01:50:23.186Z,593.10
2022-12-06T01:53:25.283Z,593.33
2022-12-06T01:55:53.110Z,589.55
2022-12-06T01:58:25.180Z,594.25
2022-12-06T02:00:51.938Z,591.70
2022-12-06T02:03:22.617Z,594.93
2022-12-06T02:05:49.502Z,598.90
2022-12-06T02:08:17.576Z,596.78
2022-12-06T02:10:44.249Z,603.85
2022-12-06T02:13:11.194Z,597.58
2022-12-06T02:15:49.021Z,601.13
2022-12-06T02:18:42.632Z,598.72
2022-12-06T02:21:09.145Z,601.45
2022-12-06T02:23:58.107Z,602.07
2022-12-06T02:26:30.584Z,598.08
2022-12-06T02:29:00.143Z,600.87
2022-12-06T02:31:45.402Z,602.10
2022-12-06T02:34:18.534Z,593.83
2022-12-06T02:37:02.755Z,597.45
2022-12-06T02:40:07.520Z,598.93
2022-12-06T02:42:40.404Z,602.43
2022-12-06T02:45:19.183Z,607.42
2022-12-06T02:47:48.820Z,609.45
2022-12-06T02:50:22.602Z,605.22
2022-12-06T02:52:53.779Z,608.92
2022-12-06T02:55:23.614Z,607.58
2022-12-06T02:57:53.259Z,608.28
2022-12-06T03:00:28.992Z,606.40
2022-12-06T03:03:06.354Z,605.03
2022-12-06T03:05:41.264Z,604.28
2022-12-06T03:08:18.543Z,608.73
2022-12-06T03:10:50.721Z,611.58
2022-12-06T03:14:02.514Z,611.07
2022-12-06T03:16:34.899Z,605.60
2022-12-06T03:19:12.010Z,602.25
2022-12-06T03:21:50.617Z,595.42
2022-12-06T03:24:17.450Z,593.55
2022-12-06T03:26:48.298Z,597.25
2022-12-06T03:29:18.590Z,597.13
2022-12-06T03:31:46.895Z,595.85
2022-12-06T03:34:17.307Z,602.60
2022-12-06T03:36:46.557Z,597.75
2022-12-06T03:39:16.185Z,600.97
2022-12-06T03:41:48.453Z,600.15
2022-12-06T03:44:15.315Z,606.42
2022-12-06T03:46:48.671Z,606.10
2022-12-06T03:49:21.513Z,602.50
2022-12-06T03:51:48.486Z,605.13
2022-12-06T03:54:16.146Z,595.33
2022-12-06T03:56:42.872Z,601.40
2022-12-06T03:59:11.212Z,593.13
2022-12-06T04:01:38.944Z,594.03
2022-12-06T04:04:06.183Z,600.42
2022-12-06T04:06:33.225Z,603.97
2022-12-06T04:09:18.478Z,597.70
2022-12-06T04:11:45.584Z,603.20
2022-12-06T04:14:12.297Z,609.10
2022-12-06T04:16:57.112Z,609.10
2022-12-06T04:19:23.727Z,605.40
2022-12-06T04:22:08.647Z,605.88
2022-12-06T04:24:35.244Z,607.37
2022-12-06T04:27:20.768Z,609.78
2022-12-06T04:30:06.013Z,595.65
2022-12-06T04:32:51.245Z,597.17
2022-12-06T04:35:36.558Z,598.55
2022-12-06T04:38:21.888Z,594.40
2022-12-06T04:40:48.649Z,584.25
2022-12-06T04:43:33.924Z,599.90
2022-12-06T04:46:00.590Z,585.73
2022-12-06T04:48:27.176Z,588.38
2022-12-06T04:50:53.756Z,591.47
2022-12-06T04:53:20.284Z,591.60
2022-12-06T04:55:47.777Z,596.40
2022-12-06T04:58:15.711Z,593.42
2022-12-06T05:00:43.722Z,598.15
2022-12-06T05:03:11.770Z,579.72
2022-12-06T05:05:38.573Z,579.03
2022-12-06T05:08:05.598Z,581.10
2022-12-06T05:10:33.220Z,580.58
2022-12-06T05:13:00.564Z,575.05
2022-12-06T05:15:29.357Z,568.60
2022-12-06T05:17:56.224Z,568.20
2022-12-06T05:20:23.447Z,568.78
2022-12-06T05:22:50.333Z,571.80
2022-12-06T05:25:17.189Z,573.60
2022-12-06T05:27:44.754Z,574.78
2022-12-06T05:30:11.938Z,572.05
2022-12-06T05:32:40.108Z,577.45
2022-12-06T05:35:07.566Z,568.20
2022-12-06T05:37:34.119Z,566.28
2022-12-06T05:40:00.887Z,572.97
2022-12-06T05:42:27.720Z,577.20
2022-12-06T05:44:54.301Z,577.53
2022-12-06T05:47:21.020Z,568.05
2022-12-06T05:49:47.662Z,578.00
2022-12-06T05:52:14.360Z,568.30
2022-12-06T05:54:40.990Z,562.00
2022-12-06T05:57:07.590Z,566.33
2022-12-06T05:59:34.234Z,574.65
2022-12-06T06:02:01.089Z,573.17
2022-12-06T06:04:27.807Z,575.42
2022-12-06T06:06:54.576Z,585.20
2022-12-06T06:09:21.382Z,576.72
2022-12-06T06:11:47.909Z,581.45
2022-12-06T06:14:14.899Z,577.65
2022-12-06T06:16:41.597Z,593.50
2022-12-06T06:19:08.326Z,579.70
2022-12-06T06:21:34.897Z,582.65
2022-12-06T06:24:01.848Z,590.50
2022-12-06T06:26:28.974Z,589.42
2022-12-06T06:28:55.809Z,600.97
2022-12-06T06:31:22.440Z,597.38
2022-12-06T06:33:49.104Z,598.80
2022-12-06T06:36:15.792Z,580.78
2022-12-06T06:38:42.483Z,575.17
2022-12-06T06:41:09.175Z,580.05
2022-12-06T06:43:35.956Z,580.42
2022-12-06T06:46:06.962Z,577.60
2022-12-06T06:48:36.854Z,589.28
2022-12-06T06:51:08.708Z,577.20
2022-12-06T06:53:40.158Z,586.42
2022-12-06T06:56:07.591Z,575.20
2022-12-06T06:58:34.441Z,584.17
2022-12-06T07:01:03.231Z,589.30
2022-12-06T07:03:30.281Z,592.83
2022-12-06T07:05:59.659Z,571.33
2022-12-06T07:08:29.505Z,577.60
2022-12-06T07:10:56.467Z,568.50
2022-12-06T07:13:24.579Z,560.17
2022-12-06T07:15:51.701Z,562.72
2022-12-06T07:18:19.527Z,559.72
2022-12-06T07:20:47.645Z,567.17
2022-12-06T07:23:15.272Z,566.28
2022-12-06T07:25:41.991Z,563.38
2022-12-06T07:28:08.700Z,568.53
2022-12-06T07:30:35.524Z,553.40
2022-12-06T07:33:02.385Z,557.03
2022-12-06T07:35:48.392Z,562.17
2022-12-06T07:38:15.860Z,556.85
2022-12-06T07:43:47.872Z,557.60
2022-12-06T07:46:14.568Z,545.10
2022-12-06T07:48:41.169Z,547.60
2022-12-06T07:51:07.837Z,547.40
2022-12-06T07:53:34.620Z,535.67
2022-12-06T07:56:08.531Z,545.75
2022-12-06T07:58:35.398Z,553.80
2022-12-06T08:01:04.464Z,534.92
2022-12-06T08:03:31.731Z,554.47
2022-12-06T08:05:58.490Z,541.22
2022-12-06T08:08:28.789Z,531.65
2022-12-06T08:10:59.960Z,520.22
2022-12-06T08:13:27.063Z,515.15
2022-12-06T08:15:53.845Z,519.45
2022-12-06T08:18:21.061Z,521.97
2022-12-06T08:20:48.099Z,517.67
2022-12-06T08:23:14.863Z,524.63
2022-12-06T08:25:41.537Z,532.67
2022-12-06T08:28:08.188Z,532.90
2022-12-06T08:30:35.028Z,544.17
2022-12-06T08:33:01.838Z,535.15
2022-12-06T08:35:28.577Z,522.15
2022-12-06T08:37:55.294Z,529.45
2022-12-06T08:40:22.176Z,525.80
2022-12-06T08:42:56.399Z,518.88
2022-12-06T08:45:23.077Z,515.58
2022-12-06T08:47:49.675Z,510.67
2022-12-06T08:50:16.246Z,499.52
2022-12-06T08:52:42.930Z,494.13
2022-12-06T08:55:09.730Z,466.02
2022-12-06T08:57:36.404Z,438.00
2022-12-06T09:00:05.875Z,418.47
2022-12-06T09:02:32.474Z,396.83
2022-12-06T09:04:59.197Z,392.02
2022-12-06T09:07:26.602Z,375.77
2022-12-06T09:09:54.706Z,359.35
2022-12-06T09:12:21.889Z,358.42
2022-12-06T09:14:48.525Z,350.05
2022-12-06T09:17:15.305Z,355.02
2022-12-06T09:19:42.071Z,346.52
2022-12-06T09:22:08.722Z,353.58
2022-12-06T09:24:35.387Z,375.20
2022-12-06T09:27:02.068Z,347.50
2022-12-06T09:29:28.860Z,354.90
2022-12-06T09:31:55.556Z,341.67
2022-12-06T09:34:22.284Z,339.88
2022-12-06T09:37:08.097Z,335.73
2022-12-06T09:39:39.525Z,333.25
2022-12-06T09:42:12.121Z,365.52
2022-12-06T09:44:53.694Z,338.60
2022-12-06T09:47:32.368Z,345.40
2022-12-06T09:50:26.634Z,341.65
2022-12-06T09:53:21.354Z,334.83
2022-12-06T09:56:00.616Z,314.25
2022-12-06T09:58:51.871Z,324.83
2022-12-06T10:01:36.701Z,325.95
2022-12-06T10:04:29.374Z,322.35
2022-12-06T10:07:19.996Z,335.77
2022-12-06T10:10:03.334Z,339.48
2022-12-06T10:12:48.452Z,327.95
2022-12-06T10:15:46.399Z,315.02
2022-12-06T10:18:21.017Z,344.80
2022-12-06T10:21:24.567Z,332.40
2022-12-06T10:24:13.825Z,328.27
2022-12-06T10:26:51.883Z,324.65
2022-12-06T10:29:29.705Z,327.70
2022-12-06T10:32:05.999Z,335.05
2022-12-06T10:34:58.288Z,348.52
2022-12-06T10:37:59.905Z,330.23
2022-12-06T10:40:45.203Z,330.42
2022-12-06T10:43:25.433Z,348.58
2022-12-06T10:46:24.096Z,352.75
2022-12-06T10:49:09.169Z,340.75
2022-12-06T10:51:56.315Z,356.50
2022-12-06T10:54:33.648Z,322.75
2022-12-06T10:57:06.338Z,338.08
2022-12-06T10:59:54.476Z,339.92
2022-12-06T11:02:53.688Z,331.05
2022-12-06T11:05:30.568Z,343.17
2022-12-06T11:08:11.894Z,336.52
2022-12-06T11:10:42.040Z,348.15
2022-12-06T11:13:31.077Z,342.15
2022-12-06T11:16:05.846Z,335.80
2022-12-06T11:18:34.035Z,328.20
2022-12-06T11:21:03.710Z,346.60
2022-12-06T11:23:50.947Z,334.40
2022-12-06T11:26:41.813Z,351.13
2022-12-06T11:29:14.030Z,358.55
2022-12-06T11:31:50.807Z,336.90
2022-12-06T11:34:17.588Z,331.73
2022-12-06T11:36:45.268Z,346.53
2022-12-06T11:39:13.836Z,330.98
2022-12-06T11:41:43.508Z,337.20
2022-12-06T11:44:18.958Z,324.50
2022-12-06T11:46:50.320Z,344.10
2022-12-06T11:49:39.992Z,339.87
2022-12-06T11:52:12.842Z,342.80
2022-12-06T11:54:55.164Z,356.73
2022-12-06T11:57:50.598Z,356.80
2022-12-06T12:00:23.912Z,359.55
2022-12-06T12:02:53.761Z,351.63
2022-12-06T12:05:24.143Z,360.50
2022-12-06T12:08:00.000Z,364.73
2022-12-06T12:10:32.928Z,361.65
2022-12-06T12:13:45.531Z,358.77
2022-12-06T12:16:15.155Z,357.83
2022-12-06T12:18:49.877Z,349.17
2022-12-06T12:21:17.548Z,344.85
2022-12-06T12:23:46.840Z,355.80
2022-12-06T12:26:17.017Z,356.77
2022-12-06T12:28:46.053Z,346.60
2022-12-06T12:31:24.492Z,348.33
2022-12-06T12:34:25.809Z,346.85
2022-12-06T12:36:56.871Z,358.60
2022-12-06T12:39:45.351Z,341.75
2022-12-06T12:42:29.908Z,349.75
2022-12-06T12:45:00.110Z,347.13
2022-12-06T12:47:27.302Z,339.67
2022-12-06T12:50:02.039Z,347.75
2022-12-06T12:52:37.629Z,358.02
2022-12-06T12:55:13.475Z,352.48
2022-12-06T12:57:45.026Z,345.67
2022-12-06T13:00:37.302Z,356.23
2022-12-06T13:03:28.561Z,344.90
2022-12-06T13:06:00.082Z,365.88
2022-12-06T13:08:33.900Z,343.98
2022-12-06T13:11:03.366Z,346.30
2022-12-06T13:13:43.639Z,330.65
2022-12-06T13:16:18.361Z,352.02
2022-12-06T13:18:52.746Z,340.80
2022-12-06T13:21:31.889Z,346.05
2022-12-06T13:24:10.848Z,337.20
2022-12-06T13:26:43.236Z,346.75
2022-12-06T13:29:23.526Z,318.80
2022-12-06T13:31:53.665Z,339.35
2022-12-06T13:34:23.222Z,345.00
2022-12-06T13:36:52.268Z,342.30
2022-12-06T13:39:30.965Z,327.92
2022-12-06T13:42:18.349Z,344.08
2022-12-06T13:44:48.211Z,347.95
2022-12-06T13:47:27.119Z,334.45
2022-12-06T13:49:54.801Z,346.33
2022-12-06T13:52:43.276Z,338.98
2022-12-06T13:55:25.096Z,354.98
2022-12-06T13:58:04.024Z,346.10
2022-12-06T14:00:30.667Z,379.58
2022-12-06T14:02:59.442Z,342.48
2022-12-06T14:08:52.042Z,346.20
2022-12-06T14:11:33.947Z,349.17
2022-12-06T14:14:08.877Z,345.13
2022-12-06T14:16:56.981Z,344.65
2022-12-06T14:19:46.973Z,348.20
2022-12-06T14:22:28.539Z,353.88
2022-12-06T14:25:08.044Z,339.90
2022-12-06T14:27:49.176Z,342.30
2022-12-06T14:30:26.393Z,331.00
2022-12-06T14:32:58.635Z,340.67
2022-12-06T14:35:37.283Z,342.92
2022-12-06T14:38:25.231Z,340.05
2022-12-06T14:41:11.040Z,350.48
2022-12-06T14:43:39.724Z,350.73
2022-12-06T14:46:15.615Z,356.38
2022-12-06T14:49:02.486Z,396.85
2022-12-06T14:51:38.555Z,334.77
2022-12-06T14:54:18.163Z,348.38
2022-12-06T14:56:45.240Z,347.33
2022-12-06T14:59:12.762Z,329.85
2022-12-06T15:01:51.075Z,351.98
2022-12-06T15:04:26.587Z,345.13
2022-12-06T15:06:56.013Z,347.15
2022-12-06T15:09:23.005Z,354.65
2022-12-06T15:12:08.249Z,359.17
2022-12-06T15:14:35.606Z,357.47
2022-12-06T15:17:08.200Z,345.52
2022-12-06T15:19:38.882Z,345.83
2022-12-06T15:22:19.936Z,350.60
2022-12-06T15:24:51.872Z,349.65
2022-12-06T15:27:20.305Z,360.98
2022-12-06T15:29:47.348Z,353.27
2022-12-06T15:32:19.016Z,349.33
2022-12-06T15:34:45.947Z,350.15
2022-12-06T15:37:38.155Z,340.13
2022-12-06T15:40:02.137Z,340.63
2022-12-06T15:42:28.967Z,347.58
2022-12-06T15:44:55.912Z,341.42
2022-12-06T15:47:22.627Z,335.48
2022-12-06T15:49:51.798Z,341.73
2022-12-06T15:52:23.527Z,319.25
2022-12-06T15:54:50.733Z,315.42
2022-12-06T15:57:17.792Z,319.05
2022-12-06T15:59:44.497Z,293.27
2022-12-06T16:02:16.835Z,311.92
2022-12-06T16:04:44.583Z,320.70
2022-12-06T16:07:13.215Z,305.08
2022-12-06T16:09:44.102Z,306.27
2022-12-06T16:12:10.885Z,316.27
2022-12-06T16:14:37.630Z,345.10
2022-12-06T16:17:04.266Z,315.92
2022-12-06T16:19:50.947Z,319.45
2022-12-06T16:22:17.672Z,321.20
2022-12-06T16:24:46.194Z,298.25
2022-12-06T16:27:14.903Z,318.90
2022-12-06T16:29:41.542Z,322.42
2022-12-06T16:32:08.198Z,330.77
2022-12-06T16:34:34.847Z,352.27
2022-12-06T16:37:04.084Z,333.75
2022-12-06T16:39:33.646Z,335.15
2022-12-06T16:42:01.245Z,332.45
2022-12-06T16:44:27.911Z,371.90
2022-12-06T16:46:54.692Z,332.00
2022-12-06T16:52:10.762Z,332.57
2022-12-06T16:54:41.570Z,338.58
2022-12-06T16:57:10.131Z,376.92
2022-12-06T16:59:36.897Z,318.80
2022-12-06T17:02:08.507Z,328.40
2022-12-06T17:04:38.312Z,326.50
2022-12-06T17:07:05.037Z,329.50
2022-12-06T17:09:31.663Z,326.23
2022-12-06T17:12:12.667Z,317.40
2022-12-06T17:14:40.009Z,324.38
2022-12-06T17:17:06.591Z,330.17
2022-12-06T17:19:33.638Z,336.08
2022-12-06T17:22:06.181Z,327.48
2022-12-06T17:24:33.375Z,320.77
2022-12-06T17:27:00.023Z,314.35
2022-12-06T17:29:28.513Z,330.23
2022-12-06T17:31:56.322Z,330.98
2022-12-06T17:34:25.518Z,320.17
2022-12-06T17:36:52.642Z,313.65
2022-12-06T17:39:21.019Z,313.10
2022-12-06T17:42:06.387Z,324.88
2022-12-06T17:44:34.074Z,328.08
2022-12-06T17:47:01.522Z,329.27
2022-12-06T17:49:28.848Z,329.58
2022-12-06T17:51:55.850Z,337.02
2022-12-06T17:54:22.949Z,326.20
2022-12-06T17:56:53.992Z,343.07
2022-12-06T17:59:23.213Z,338.60
2022-12-06T18:02:13.992Z,332.17
2022-12-06T18:04:37.762Z,317.15
2022-12-06T18:07:04.304Z,311.58
2022-12-06T18:09:31.203Z,298.23
2022-12-06T18:11:57.969Z,307.33
2022-12-06T18:14:24.674Z,281.50
2022-12-06T18:16:51.399Z,278.83
2022-12-06T18:19:25.216Z,284.42
2022-12-06T18:21:52.293Z,286.73
2022-12-06T18:24:21.885Z,277.27
2022-12-06T18:26:50.148Z,263.88
2022-12-06T18:29:19.712Z,262.50
2022-12-06T18:31:46.771Z,273.73
2022-12-06T18:34:13.869Z,270.38
2022-12-06T18:36:40.927Z,271.52
2022-12-06T18:39:14.876Z,277.77
2022-12-06T18:41:45.213Z,267.07
2022-12-06T18:44:12.612Z,278.65
2022-12-06T18:46:41.519Z,263.52
2022-12-06T18:49:10.463Z,277.35
2022-12-06T18:51:38.589Z,286.45
2022-12-06T18:54:06.306Z,284.60
2022-12-06T18:56:34.133Z,272.73
2022-12-06T18:59:03.121Z,284.07
2022-12-06T19:01:32.566Z,278.02
2022-12-06T19:04:01.110Z,268.07
2022-12-06T19:06:31.536Z,271.25
2022-12-06T19:09:02.298Z,274.08
2022-12-06T19:11:29.034Z,256.45
2022-12-06T19:14:00.352Z,273.30
2022-12-06T19:16:37.832Z,269.50
2022-12-06T19:19:12.703Z,264.00
2022-12-06T19:21:43.979Z,249.43
2022-12-06T19:24:12.516Z,251.32
2022-12-06T19:26:39.216Z,262.23
2022-12-06T19:29:05.891Z,250.63
2022-12-06T19:31:33.226Z,270.13
2022-12-06T19:34:00.113Z,259.05
2022-12-06T19:36:28.879Z,262.77
2022-12-06T19:39:00.066Z,255.45
2022-12-06T19:41:27.468Z,244.23
2022-12-06T19:44:12.835Z,250.75
2022-12-06T19:46:42.818Z,250.75
2022-12-06T19:49:10.301Z,258.15
2022-12-06T19:51:42.344Z,253.65
2022-12-06T19:54:11.740Z,262.05
2022-12-06T19:56:39.276Z,259.50
2022-12-06T19:59:12.944Z,252.17
2022-12-06T20:01:41.824Z,260.40
2022-12-06T20:04:09.191Z,259.08
2022-12-06T20:06:36.611Z,257.63
2022-12-06T20:09:04.054Z,261.15
2022-12-06T20:11:49.415Z,260.15
2022-12-06T20:14:21.342Z,257.88
2022-12-06T20:16:48.305Z,254.25
2022-12-06T20:19:16.398Z,250.93
2022-12-06T20:21:46.742Z,253.00
2022-12-06T20:24:16.644Z,251.43
2022-12-06T20:26:43.242Z,271.55
2022-12-06T20:29:10.460Z,258.20
2022-12-06T20:31:37.212Z,254.82
2022-12-06T20:34:10.263Z,263.90
2022-12-06T20:36:41.668Z,260.23
2022-12-06T20:39:08.615Z,260.87
2022-12-06T20:41:35.254Z,255.75
2022-12-06T20:44:02.695Z,257.65
2022-12-06T20:46:31.206Z,273.75
2022-12-06T20:49:03.740Z,242.38
2022-12-06T20:51:31.418Z,245.40
2022-12-06T20:54:00.462Z,249.02
2022-12-06T20:56:30.306Z,260.33
2022-12-06T20:58:58.699Z,255.25
2022-12-06T21:01:27.953Z,261.23
2022-12-06T21:03:55.044Z,278.67
2022-12-06T21:06:24.045Z,280.63
2022-12-06T21:08:51.604Z,279.10
2022-12-06T21:11:23.805Z,280.63
2022-12-06T21:13:53.460Z,283.55
2022-12-06T21:16:28.582Z,278.00
2022-12-06T21:19:03.686Z,304.92
2022-12-06T21:21:35.514Z,289.52
2022-12-06T21:24:04.321Z,301.38
2022-12-06T21:26:31.036Z,290.73
2022-12-06T21:28:57.953Z,294.55
2022-12-06T21:31:36.065Z,309.20
2022-12-06T21:34:03.077Z,314.73
2022-12-06T21:36:30.007Z,309.13
2022-12-06T21:38:58.167Z,328.92
2022-12-06T21:41:25.491Z,318.70
2022-12-06T21:43:52.529Z,317.75
2022-12-06T21:46:22.955Z,326.95
2022-12-06T21:48:51.510Z,326.52
2022-12-06T21:51:18.908Z,327.15
2022-12-06T21:53:45.709Z,335.13
2022-12-06T21:56:15.545Z,331.13
2022-12-06T21:58:42.215Z,332.52
2022-12-06T22:01:11.313Z,332.30
2022-12-06T22:03:38.937Z,338.43
2022-12-06T22:06:07.870Z,347.55
2022-12-06T22:08:34.904Z,339.85
2022-12-06T22:11:06.338Z,344.60
2022-12-06T22:13:32.917Z,336.63
2022-12-06T22:16:06.869Z,325.40
2022-12-06T22:18:37.735Z,336.73
2022-12-06T22:21:22.409Z,335.27
2022-12-06T22:23:49.332Z,335.93
2022-12-06T22:26:18.785Z,349.52
2022-12-06T22:28:46.100Z,347.67
2022-12-06T22:31:19.048Z,353.40
2022-12-06T22:33:46.700Z,358.45
2022-12-06T22:36:14.204Z,348.15
2022-12-06T22:38:41.037Z,342.73
2022-12-06T22:41:08.783Z,347.05
2022-12-06T22:43:35.658Z,347.40
2022-12-06T22:46:14.393Z,340.98
2022-12-06T22:48:42.713Z,341.02
2022-12-06T22:51:14.420Z,344.42
2022-12-06T22:53:43.349Z,347.27
2022-12-06T22:56:10.340Z,351.53
2022-12-06T22:58:37.796Z,352.17
2022-12-06T23:01:16.512Z,345.58
2022-12-06T23:03:48.452Z,365.75
2022-12-06T23:06:17.320Z,374.73
2022-12-06T23:08:44.320Z,374.80
2022-12-06T23:11:13.762Z,363.77
2022-12-06T23:13:40.891Z,366.53
2022-12-06T23:16:12.349Z,366.75
2022-12-06T23:18:39.079Z,383.77
2022-12-06T23:21:20.360Z,389.40
2022-12-06T23:23:49.654Z,395.45
2022-12-06T23:26:18.956Z,406.00
2022-12-06T23:28:46.399Z,403.48
2022-12-06T23:31:17.422Z,400.48
2022-12-06T23:33:46.141Z,395.83
2022-12-06T23:36:21.429Z,388.45
2022-12-06T23:38:48.566Z,391.07
2022-12-06T23:41:17.940Z,389.38
2022-12-06T23:43:45.280Z,386.55
2022-12-06T23:46:20.600Z,394.63
2022-12-06T23:48:48.731Z,398.15
2022-12-06T23:51:18.958Z,380.77
2022-12-06T23:53:50.331Z,379.93
2022-12-06T23:56:18.603Z,375.13
2022-12-06T23:58:45.957Z,379.93
